Time;durP1;ratioP1;P1;durP2;ratioP2;P2;SDS_P1;SDS_P2;PMS_P1;PMS_P2;Temp;Humidity;BMP_temperature;BMP_pressure;BME280_temperature;BME280_humidity;BME280_pressure;Samples;Min_cycle;Max_cycle;Signal;HPM_P1;HPM_P2
2022/04/24 00:01:50;;;;;;;28.40;17.07;;;9.50;99.90;;;;;;4258617;27;20471;-59
2022/04/24 00:03:52;;;;;;;25.23;14.90;;;9.50;99.90;;;;;;4257670;27;20040;-58
2022/04/24 00:05:53;;;;;;;24.17;14.87;;;9.40;99.90;;;;;;4258235;27;20076;-57
2022/04/24 00:07:54;;;;;;;26.50;14.70;;;9.30;99.90;;;;;;4257700;27;20074;-59
2022/04/24 00:09:56;;;;;;;27.67;15.40;;;9.30;99.90;;;;;;4258649;27;20039;-58
2022/04/24 00:11:57;;;;;;;27.70;15.23;;;9.20;99.90;;;;;;4258005;27;20087;-60
2022/04/24 00:13:59;;;;;;;27.33;14.97;;;9.20;99.90;;;;;;4240279;27;20144;-63
2022/04/24 00:16:00;;;;;;;28.33;15.77;;;9.10;99.90;;;;;;4257761;27;20027;-53
2022/04/24 00:18:01;;;;;;;28.43;16.23;;;9.20;99.90;;;;;;4258070;27;20147;-53
2022/04/24 00:20:03;;;;;;;29.20;16.17;;;9.10;99.90;;;;;;4256872;27;20077;-56
2022/04/24 00:22:04;;;;;;;27.93;16.50;;;9.20;99.90;;;;;;4257981;27;20087;-52
2022/04/24 00:24:06;;;;;;;30.23;15.87;;;9.20;99.90;;;;;;4257440;27;20027;-54
2022/04/24 00:26:07;;;;;;;25.63;14.87;;;9.10;99.90;;;;;;4257843;27;20095;-62
2022/04/24 00:28:08;;;;;;;28.53;15.77;;;9.20;99.90;;;;;;4257035;27;20991;-65
2022/04/24 00:30:10;;;;;;;32.33;17.73;;;9.20;99.90;;;;;;4222743;28;20112;-65
2022/04/24 00:32:11;;;;;;;28.67;16.30;;;9.20;99.90;;;;;;4258167;27;20031;-52
2022/04/24 00:34:12;;;;;;;26.33;15.77;;;9.20;99.90;;;;;;4257807;27;20453;-57
2022/04/24 00:36:13;;;;;;;30.30;17.50;;;9.20;99.90;;;;;;4257743;27;20581;-58
2022/04/24 00:38:15;;;;;;;26.93;15.17;;;9.30;99.90;;;;;;4256577;27;20073;-60
2022/04/24 00:40:18;;;;;;;30.13;17.13;;;9.30;99.90;;;;;;4259396;27;20102;-57
2022/04/24 00:42:19;;;;;;;30.83;18.13;;;9.30;99.90;;;;;;4257789;27;20027;-63
2022/04/24 00:44:20;;;;;;;34.00;20.03;;;9.30;99.90;;;;;;4257569;27;20487;-61
2022/04/24 00:46:27;;;;;;;37.00;20.27;;;9.30;99.90;;;;;;4256921;27;20428;-64
2022/04/24 00:48:28;;;;;;;41.80;22.03;;;9.30;99.90;;;;;;4257760;27;20642;-61
2022/04/24 00:50:30;;;;;;;39.20;21.07;;;9.40;99.90;;;;;;4257069;27;20486;-55
2022/04/24 00:52:31;;;;;;;32.00;20.30;;;9.30;99.90;;;;;;4258396;27;20067;-57
2022/04/24 00:54:32;;;;;;;33.10;18.80;;;9.30;99.90;;;;;;4256828;27;20031;-63
2022/04/24 00:56:35;;;;;;;32.63;19.40;;;9.30;99.90;;;;;;4257484;27;20803;-67
2022/04/24 00:58:36;;;;;;;29.43;17.73;;;9.30;99.90;;;;;;4256864;27;20027;-59
2022/04/24 01:00:38;;;;;;;29.40;17.33;;;9.30;99.90;;;;;;4257597;27;20056;-54
2022/04/24 01:02:39;;;;;;;26.03;17.27;;;9.40;99.90;;;;;;4256745;27;20043;-55
2022/04/24 01:04:40;;;;;;;26.93;16.23;;;9.30;99.90;;;;;;4256670;27;20423;-60
2022/04/24 01:06:43;;;;;;;26.80;16.90;;;9.40;99.90;;;;;;4257158;27;20071;-58
2022/04/24 01:08:44;;;;;;;24.90;15.23;;;9.40;99.90;;;;;;4257737;27;20031;-58
2022/04/24 01:10:45;;;;;;;25.37;15.17;;;9.40;99.90;;;;;;4257778;27;20072;-58
2022/04/24 01:12:47;;;;;;;25.53;15.00;;;9.30;99.90;;;;;;4256958;27;20091;-62
2022/04/24 01:14:48;;;;;;;28.03;14.50;;;9.30;99.90;;;;;;4258641;27;20080;-59
2022/04/24 01:16:49;;;;;;;26.93;15.13;;;9.30;99.90;;;;;;4237617;28;20051;-50
2022/04/24 01:18:50;;;;;;;25.67;16.03;;;9.40;99.90;;;;;;4258244;27;20034;-50
2022/04/24 01:20:51;;;;;;;26.13;15.83;;;9.40;99.90;;;;;;4255982;27;20071;-59
2022/04/24 01:22:53;;;;;;;23.83;14.43;;;9.30;99.90;;;;;;4257579;27;20051;-54
2022/04/24 01:24:54;;;;;;;26.83;14.93;;;9.30;99.90;;;;;;4255968;27;20044;-54
2022/04/24 01:26:55;;;;;;;25.43;14.83;;;9.30;99.90;;;;;;4257500;27;20843;-65
2022/04/24 01:28:56;;;;;;;26.00;15.17;;;9.40;99.90;;;;;;4256601;27;20026;-65
2022/04/24 01:30:58;;;;;;;26.83;13.60;;;9.40;99.90;;;;;;4239032;28;20047;-55
2022/04/24 01:32:59;;;;;;;23.63;14.60;;;9.40;99.90;;;;;;4258012;27;20119;-59
2022/04/24 01:35:01;;;;;;;25.00;15.33;;;9.40;99.90;;;;;;4260002;27;20080;-54
2022/04/24 01:37:02;;;;;;;23.80;13.03;;;9.40;99.90;;;;;;4260936;27;20094;-58
2022/04/24 01:39:07;;;;;;;23.13;13.70;;;9.40;99.90;;;;;;4258944;27;20440;-57
2022/04/24 01:41:08;;;;;;;22.00;13.53;;;9.40;99.90;;;;;;4261091;27;20050;-61
2022/04/24 01:43:09;;;;;;;22.00;12.90;;;9.40;99.90;;;;;;4259869;27;20542;-56
2022/04/24 01:45:11;;;;;;;24.83;14.80;;;9.30;99.90;;;;;;4261309;27;20102;-55
2022/04/24 01:47:12;;;;;;;26.97;14.40;;;9.30;99.90;;;;;;4259533;27;20095;-56
2022/04/24 01:49:15;;;;;;;23.60;13.30;;;9.30;99.90;;;;;;4260945;27;20030;-57
2022/04/24 01:51:16;;;;;;;24.73;14.30;;;9.30;99.90;;;;;;4260026;27;20034;-62
2022/04/24 01:53:17;;;;;;;23.90;13.23;;;9.30;99.90;;;;;;4261398;27;20640;-55
2022/04/24 01:55:18;;;;;;;28.43;14.50;;;9.30;99.90;;;;;;4259098;27;20046;-59
2022/04/24 01:57:19;;;;;;;20.93;13.43;;;9.30;99.90;;;;;;4260441;27;20038;-55
2022/04/24 01:59:20;;;;;;;26.67;13.80;;;9.20;99.90;;;;;;4259480;27;20038;-55
2022/04/24 02:01:21;;;;;;;20.47;12.73;;;9.20;99.90;;;;;;4260547;27;20340;-65
2022/04/24 02:03:24;;;;;;;23.13;13.33;;;9.20;99.90;;;;;;4258995;27;20479;-55
2022/04/24 02:05:25;;;;;;;22.83;13.00;;;9.20;99.90;;;;;;4260452;27;20023;-56
2022/04/24 02:07:28;;;;;;;22.63;13.20;;;9.20;99.90;;;;;;4259904;27;20046;-66
2022/04/24 02:09:29;;;;;;;21.23;12.70;;;9.20;99.90;;;;;;4259656;27;20051;-51
2022/04/24 02:11:30;;;;;;;22.50;14.33;;;9.20;99.90;;;;;;4261269;27;20389;-57
2022/04/24 02:13:33;;;;;;;22.07;12.23;;;9.20;99.90;;;;;;4258731;27;20095;-61
2022/04/24 02:15:34;;;;;;;20.23;12.83;;;9.10;99.90;;;;;;4259942;27;20103;-57
2022/04/24 02:17:35;;;;;;;20.80;13.23;;;9.10;99.90;;;;;;4259457;27;20030;-53
2022/04/24 02:19:38;;;;;;;21.33;12.73;;;9.20;99.90;;;;;;4260810;27;20026;-57
2022/04/24 02:21:39;;;;;;;21.73;13.33;;;9.00;99.90;;;;;;4259882;27;20539;-59
2022/04/24 02:23:41;;;;;;;22.43;13.33;;;9.00;99.90;;;;;;4260205;27;20039;-53
2022/04/24 02:25:42;;;;;;;23.87;13.30;;;8.90;99.90;;;;;;4259178;27;20047;-58
2022/04/24 02:27:43;;;;;;;22.60;13.60;;;8.90;99.90;;;;;;4260142;27;20104;-49
2022/04/24 02:29:44;;;;;;;19.70;12.20;;;9.00;99.90;;;;;;4258587;27;20075;-58
2022/04/24 02:31:46;;;;;;;22.53;13.33;;;9.00;99.90;;;;;;4259807;27;20047;-56
2022/04/24 02:33:47;;;;;;;21.97;12.60;;;9.00;99.90;;;;;;4259572;27;20055;-61
2022/04/24 02:35:48;;;;;;;22.93;13.87;;;9.00;99.90;;;;;;4259199;27;20071;-57
2022/04/24 02:37:49;;;;;;;20.03;12.33;;;9.10;99.90;;;;;;4259472;27;20026;-56
2022/04/24 02:39:50;;;;;;;18.20;11.63;;;9.10;99.90;;;;;;4259844;27;20539;-57
2022/04/24 02:41:51;;;;;;;22.27;11.80;;;9.00;99.90;;;;;;4259427;27;20103;-57
2022/04/24 02:43:53;;;;;;;23.03;12.73;;;9.00;99.90;;;;;;4258650;27;20035;-56
2022/04/24 02:45:54;;;;;;;20.77;12.47;;;9.10;99.90;;;;;;4260216;27;20019;-54
2022/04/24 02:47:55;;;;;;;19.33;12.03;;;9.10;99.90;;;;;;4258674;27;20042;-52
2022/04/24 02:49:56;;;;;;;19.57;11.40;;;9.10;99.90;;;;;;4260208;27;20039;-63
2022/04/24 02:51:57;;;;;;;25.37;12.67;;;9.10;99.90;;;;;;4258581;27;20038;-58
2022/04/24 02:53:58;;;;;;;19.90;11.40;;;9.00;99.90;;;;;;4259760;27;20095;-59
2022/04/24 02:55:59;;;;;;;22.47;11.97;;;9.00;99.90;;;;;;4259115;27;20027;-54
2022/04/24 02:58:01;;;;;;;21.17;12.17;;;9.00;99.90;;;;;;4260467;27;20031;-59
2022/04/24 03:00:03;;;;;;;24.10;11.63;;;8.90;99.90;;;;;;4258075;27;20063;-55
2022/04/24 03:02:04;;;;;;;19.93;11.03;;;8.90;99.90;;;;;;4259220;27;20483;-64
2022/04/24 03:04:06;;;;;;;18.60;11.33;;;8.80;99.90;;;;;;4257444;27;20031;-56
2022/04/24 03:06:07;;;;;;;19.23;10.97;;;8.70;99.90;;;;;;4259371;27;20038;-54
2022/04/24 03:08:08;;;;;;;17.03;10.77;;;8.60;99.90;;;;;;4258777;27;20064;-55
2022/04/24 03:10:10;;;;;;;16.97;10.93;;;8.60;99.90;;;;;;4258755;27;20091;-56
2022/04/24 03:12:11;;;;;;;19.03;11.40;;;8.60;99.90;;;;;;4259874;27;20474;-56
2022/04/24 03:14:13;;;;;;;18.97;11.47;;;8.60;99.90;;;;;;4258535;27;20111;-51
2022/04/24 03:16:14;;;;;;;22.07;11.70;;;8.70;99.90;;;;;;4258902;27;20064;-51
2022/04/24 03:18:15;;;;;;;21.00;12.57;;;8.70;99.90;;;;;;4258303;27;20027;-57
2022/04/24 03:20:18;;;;;;;18.63;11.03;;;8.70;99.90;;;;;;4259392;27;20035;-61
2022/04/24 03:22:19;;;;;;;21.67;12.80;;;8.60;99.90;;;;;;4258607;27;20048;-63
2022/04/24 03:24:20;;;;;;;21.57;11.70;;;8.60;99.90;;;;;;4258828;27;20034;-59
2022/04/24 03:26:21;;;;;;;21.60;11.93;;;8.60;99.90;;;;;;4258673;27;20030;-61
2022/04/24 03:28:22;;;;;;;20.60;12.77;;;8.60;99.90;;;;;;4259922;27;20031;-62
2022/04/24 03:30:23;;;;;;;21.90;11.50;;;8.60;99.90;;;;;;4258612;27;20681;-64
2022/04/24 03:32:25;;;;;;;18.43;10.67;;;8.70;99.90;;;;;;4259373;27;20424;-56
2022/04/24 03:34:26;;;;;;;16.93;10.93;;;8.70;99.90;;;;;;4258141;27;20084;-60
2022/04/24 03:36:27;;;;;;;21.27;11.97;;;8.70;99.90;;;;;;4258743;27;20038;-66
2022/04/24 03:38:28;;;;;;;18.90;11.53;;;8.80;99.90;;;;;;4257954;27;20095;-59
2022/04/24 03:40:30;;;;;;;19.83;10.53;;;8.80;99.90;;;;;;4259173;27;20091;-54
2022/04/24 03:42:32;;;;;;;20.63;10.50;;;8.80;99.90;;;;;;4240272;27;20646;-54
2022/04/24 03:44:34;;;;;;;19.63;10.87;;;8.80;99.90;;;;;;4258462;27;20030;-56
2022/04/24 03:46:35;;;;;;;17.77;10.97;;;8.90;99.90;;;;;;4259247;27;20052;-63
2022/04/24 03:48:36;;;;;;;18.03;10.23;;;8.90;99.90;;;;;;4258082;27;20669;-53
2022/04/24 03:50:37;;;;;;;17.20;10.23;;;9.00;99.90;;;;;;4258460;27;20050;-53
2022/04/24 03:52:38;;;;;;;18.43;10.43;;;9.00;99.90;;;;;;4258076;27;20034;-56
2022/04/24 03:54:40;;;;;;;18.83;10.93;;;9.00;99.90;;;;;;4258113;27;20531;-54
2022/04/24 03:56:41;;;;;;;17.37;10.73;;;9.00;99.90;;;;;;4256708;27;20762;-54
2022/04/24 03:58:42;;;;;;;18.40;11.13;;;8.90;99.90;;;;;;4258970;27;20100;-57
2022/04/24 04:00:43;;;;;;;19.30;11.67;;;8.80;99.90;;;;;;4256939;27;20046;-53
2022/04/24 04:02:48;;;;;;;19.03;10.63;;;8.80;99.90;;;;;;4258539;27;20027;-64
2022/04/24 04:04:49;;;;;;;18.63;10.63;;;8.80;99.90;;;;;;4257803;27;20161;-56
2022/04/24 04:06:50;;;;;;;19.37;10.80;;;8.80;99.90;;;;;;4258364;27;20046;-63
2022/04/24 04:08:51;;;;;;;22.77;10.73;;;8.80;99.90;;;;;;4256728;27;20071;-55
2022/04/24 04:10:54;;;;;;;17.03;10.77;;;8.80;99.90;;;;;;4258755;27;20764;-58
2022/04/24 04:12:55;;;;;;;18.47;11.10;;;8.80;99.90;;;;;;4257197;27;20039;-60
2022/04/24 04:14:56;;;;;;;17.27;10.77;;;8.90;99.90;;;;;;4257908;27;20086;-63
2022/04/24 04:16:57;;;;;;;16.77;10.13;;;8.90;99.90;;;;;;4258458;27;20071;-56
2022/04/24 04:18:58;;;;;;;15.40;10.33;;;8.90;99.90;;;;;;4257717;27;21042;-66
2022/04/24 04:21:00;;;;;;;15.70;10.57;;;9.00;99.90;;;;;;4258256;27;20042;-53
2022/04/24 04:23:03;;;;;;;19.60;11.70;;;9.00;99.90;;;;;;4257115;27;20039;-57
2022/04/24 04:25:04;;;;;;;19.40;10.23;;;9.10;99.90;;;;;;4258207;27;20078;-57
2022/04/24 04:27:05;;;;;;;18.17;10.23;;;9.20;99.90;;;;;;4257211;27;20046;-58
2022/04/24 04:29:07;;;;;;;16.07;10.17;;;9.30;99.90;;;;;;4239453;27;20031;-61
2022/04/24 04:31:08;;;;;;;20.93;11.80;;;9.50;99.90;;;;;;4257753;27;20068;-61
2022/04/24 04:33:11;;;;;;;18.73;12.10;;;9.50;99.90;;;;;;4258090;27;20091;-54
2022/04/24 04:35:12;;;;;;;18.43;10.70;;;9.70;99.90;;;;;;4257235;27;20071;-52
2022/04/24 04:37:13;;;;;;;16.77;11.13;;;9.80;99.90;;;;;;4239952;27;20088;-60
2022/04/24 04:39:14;;;;;;;19.33;11.20;;;10.00;99.90;;;;;;4256507;27;20367;-52
2022/04/24 04:41:15;;;;;;;18.23;10.57;;;10.30;99.90;;;;;;4257715;27;20039;-55
2022/04/24 04:43:16;;;;;;;18.17;10.53;;;10.80;99.90;;;;;;4257669;27;20027;-53
2022/04/24 04:45:18;;;;;;;16.23;10.43;;;11.20;99.90;;;;;;4257564;27;20079;-54
2022/04/24 04:47:19;;;;;;;18.97;11.90;;;11.60;99.90;;;;;;4257399;27;20038;-55
2022/04/24 04:49:20;;;;;;;19.17;10.27;;;12.00;99.90;;;;;;4257459;27;20027;-56
2022/04/24 04:51:21;;;;;;;15.03;9.70;;;12.30;99.90;;;;;;4258163;27;20031;-55
2022/04/24 04:53:23;;;;;;;17.67;10.47;;;12.80;99.90;;;;;;4257371;27;20035;-51
2022/04/24 04:55:24;;;;;;;15.77;9.90;;;13.00;99.90;;;;;;4258684;27;20031;-57
2022/04/24 04:57:25;;;;;;;17.33;10.80;;;13.20;99.90;;;;;;4257254;27;20080;-64
2022/04/24 04:59:26;;;;;;;16.87;10.70;;;13.60;99.90;;;;;;4258493;27;20023;-54
2022/04/24 05:01:27;;;;;;;17.67;10.77;;;13.90;99.90;;;;;;4257148;27;20075;-53
2022/04/24 05:03:31;;;;;;;14.23;10.17;;;14.20;99.90;;;;;;4257353;27;20099;-58
2022/04/24 05:05:32;;;;;;;16.80;10.90;;;14.30;99.90;;;;;;4256431;27;20083;-50
2022/04/24 05:07:33;;;;;;;14.73;10.03;;;14.30;99.90;;;;;;4257496;27;20480;-56
2022/04/24 05:09:34;;;;;;;17.40;11.10;;;14.50;99.90;;;;;;4256471;27;20091;-59
2022/04/24 05:11:39;;;;;;;14.73;9.83;;;14.50;99.90;;;;;;4257698;27;20046;-63
2022/04/24 05:13:40;;;;;;;15.87;11.20;;;15.00;99.90;;;;;;4256470;27;20107;-57
2022/04/24 05:15:41;;;;;;;17.80;11.30;;;15.30;99.90;;;;;;4258067;27;20758;-67
2022/04/24 05:17:44;;;;;;;17.85;11.48;;;15.10;99.90;;;;;;4257211;27;20543;-52
2022/04/24 05:19:45;;;;;;;16.75;12.38;;;14.80;99.90;;;;;;4257223;27;20091;-52
2022/04/24 05:21:46;;;;;;;23.08;12.93;;;14.60;99.90;;;;;;4257738;27;20045;-53
2022/04/24 05:23:49;;;;;;;17.80;12.00;;;14.50;99.90;;;;;;4255650;27;20035;-55
2022/04/24 05:25:51;;;;;;;21.38;12.85;;;14.20;99.90;;;;;;4257885;27;20035;-57
2022/04/24 05:27:52;;;;;;;20.20;12.50;;;14.20;99.90;;;;;;4257152;27;20122;-61
2022/04/24 05:29:53;;;;;;;20.35;13.48;;;14.20;99.90;;;;;;4257849;27;20433;-56
2022/04/24 05:31:54;;;;;;;22.63;13.30;;;14.20;99.90;;;;;;4256724;27;21609;-56
2022/04/24 05:33:55;;;;;;;20.60;12.90;;;14.20;99.90;;;;;;4257343;27;20102;-52
2022/04/24 05:35:57;;;;;;;17.25;12.55;;;14.30;99.90;;;;;;4256482;27;20432;-59
2022/04/24 05:37:58;;;;;;;22.55;13.95;;;14.60;99.90;;;;;;4257508;27;20060;-62
2022/04/24 05:39:59;;;;;;;21.13;13.57;;;14.70;99.90;;;;;;4255796;27;20066;-55
2022/04/24 05:42:00;;;;;;;21.38;13.75;;;14.50;99.90;;;;;;4258348;27;20023;-53
2022/04/24 05:44:01;;;;;;;19.70;13.60;;;14.50;99.90;;;;;;4256182;27;20047;-57
2022/04/24 05:46:02;;;;;;;20.08;13.65;;;14.60;99.90;;;;;;4256909;27;20043;-59
2022/04/24 05:48:04;;;;;;;20.75;13.50;;;14.60;99.90;;;;;;4256066;27;20031;-51
2022/04/24 05:50:05;;;;;;;21.90;12.20;;;14.70;99.90;;;;;;4256994;27;20448;-62
2022/04/24 05:52:07;;;;;;;16.48;10.32;;;14.60;99.90;;;;;;4257446;27;20047;-59
2022/04/24 05:54:09;;;;;;;19.60;12.50;;;14.50;99.90;;;;;;4256919;27;20486;-51
2022/04/24 05:56:10;;;;;;;17.52;12.05;;;14.50;99.90;;;;;;4257871;27;20067;-61
2022/04/24 05:58:11;;;;;;;14.52;9.38;;;14.60;99.90;;;;;;4256392;27;20050;-63
2022/04/24 06:00:12;;;;;;;12.80;8.77;;;14.60;99.90;;;;;;4258157;27;20432;-55
2022/04/24 06:02:14;;;;;;;12.20;7.75;;;14.70;99.90;;;;;;4255748;27;20073;-53
2022/04/24 06:04:15;;;;;;;10.80;7.60;;;14.70;99.90;;;;;;4258316;27;20080;-54
2022/04/24 06:06:17;;;;;;;10.63;7.18;;;14.80;99.90;;;;;;4256586;27;20022;-58
2022/04/24 06:08:18;;;;;;;10.43;6.90;;;14.90;99.90;;;;;;4258003;27;20432;-53
2022/04/24 06:10:19;;;;;;;12.77;8.57;;;15.40;99.90;;;;;;4256406;27;20111;-58
2022/04/24 06:12:20;;;;;;;12.20;8.70;;;15.50;99.90;;;;;;4257295;27;20443;-53
2022/04/24 06:14:22;;;;;;;14.02;8.38;;;15.10;99.90;;;;;;4256529;27;20054;-55
2022/04/24 06:16:23;;;;;;;12.52;7.93;;;14.90;99.90;;;;;;4256774;27;20076;-60
2022/04/24 06:18:25;;;;;;;10.52;7.72;;;14.70;99.90;;;;;;4257172;27;20031;-61
2022/04/24 06:20:27;;;;;;;11.75;8.20;;;14.50;99.90;;;;;;4259105;27;20073;-53
2022/04/24 06:22:28;;;;;;;11.40;7.80;;;14.30;99.90;;;;;;4260126;27;20067;-56
2022/04/24 06:24:29;;;;;;;12.73;7.93;;;14.20;99.90;;;;;;4259086;27;20478;-53
2022/04/24 06:26:31;;;;;;;11.00;7.17;;;14.00;99.90;;;;;;4260071;27;20088;-53
2022/04/24 06:28:32;;;;;;;11.60;7.80;;;14.00;99.90;;;;;;4259430;27;20107;-58
2022/04/24 06:30:35;;;;;;;12.60;8.80;;;14.00;99.90;;;;;;4259935;27;20086;-54
2022/04/24 06:32:43;;;;;;;13.20;8.83;;;13.90;99.90;;;;;;4259238;27;20031;-59
2022/04/24 06:34:44;;;;;;;12.90;8.10;;;13.90;99.90;;;;;;4260254;27;20091;-56
2022/04/24 06:36:45;;;;;;;12.43;8.77;;;13.90;99.90;;;;;;4258921;27;20083;-66
2022/04/24 06:38:46;;;;;;;10.93;8.23;;;14.00;99.90;;;;;;4259579;27;20103;-62
2022/04/24 06:40:47;;;;;;;11.47;7.37;;;14.10;99.90;;;;;;4258859;27;20625;-64
2022/04/24 06:42:53;;;;;;;12.53;7.40;;;14.10;99.90;;;;;;4260380;27;20546;-57
2022/04/24 06:44:56;;;;;;;11.30;7.97;;;14.00;99.90;;;;;;4258966;27;20470;-62
2022/04/24 06:46:58;;;;;;;12.17;8.83;;;14.00;99.90;;;;;;4260108;27;20027;-51
2022/04/24 06:48:59;;;;;;;13.10;8.40;;;14.00;99.90;;;;;;4258582;27;20027;-55
2022/04/24 06:51:00;;;;;;;10.73;7.37;;;14.10;99.90;;;;;;4259876;27;20042;-61
2022/04/24 06:53:03;;;;;;;13.98;8.00;;;14.30;99.90;;;;;;4259045;27;20478;-62
2022/04/24 06:55:06;;;;;;;11.50;7.63;;;14.60;99.90;;;;;;4258735;27;20574;-52
2022/04/24 06:57:07;;;;;;;11.93;7.73;;;14.70;99.90;;;;;;4259580;27;20050;-63
2022/04/24 06:59:08;;;;;;;11.80;7.70;;;14.90;99.90;;;;;;4259054;27;20027;-65
2022/04/24 07:01:09;;;;;;;11.00;7.87;;;15.00;99.90;;;;;;4259715;27;20099;-66
2022/04/24 07:03:12;;;;;;;11.32;8.13;;;15.10;99.90;;;;;;4258729;27;20030;-59
2022/04/24 07:05:14;;;;;;;13.05;7.93;;;15.10;99.90;;;;;;4260108;27;20491;-62
2022/04/24 07:07:15;;;;;;;11.48;8.43;;;15.20;99.90;;;;;;4258383;27;20046;-54
2022/04/24 07:09:16;;;;;;;12.07;8.00;;;15.30;99.90;;;;;;4258350;27;20039;-54
2022/04/24 07:11:17;;;;;;;11.87;8.00;;;15.20;99.90;;;;;;4258785;27;20088;-59
2022/04/24 07:13:18;;;;;;;9.07;6.40;;;15.20;99.90;;;;;;4260005;27;20031;-55
2022/04/24 07:15:21;;;;;;;9.38;6.60;;;15.50;99.90;;;;;;4258116;27;20054;-60
2022/04/24 07:17:22;;;;;;;8.95;6.55;;;15.30;99.90;;;;;;4259390;27;20022;-57
2022/04/24 07:19:23;;;;;;;11.70;6.97;;;15.30;99.90;;;;;;4258679;27;20034;-61
2022/04/24 07:21:25;;;;;;;10.95;7.07;;;15.30;99.90;;;;;;4259024;27;20039;-59
2022/04/24 07:23:26;;;;;;;9.02;6.32;;;15.50;99.90;;;;;;4240306;27;20159;-58
2022/04/24 07:25:32;;;;;;;11.02;7.20;;;15.80;99.90;;;;;;4259052;27;20026;-59
2022/04/24 07:27:33;;;;;;;11.63;6.57;;;16.20;99.90;;;;;;4240833;27;20484;-54
2022/04/24 07:29:34;;;;;;;9.70;6.50;;;16.30;99.90;;;;;;4258911;27;20060;-57
2022/04/24 07:31:35;;;;;;;9.68;6.53;;;16.30;99.90;;;;;;4258373;27;20071;-58
2022/04/24 07:33:36;;;;;;;8.45;6.35;;;16.20;99.90;;;;;;4258053;27;21383;-57
2022/04/24 07:35:40;;;;;;;8.70;6.40;;;16.00;99.90;;;;;;4259545;27;20038;-53
2022/04/24 07:37:43;;;;;;;8.88;6.47;;;15.90;99.90;;;;;;4257471;27;20031;-58
2022/04/24 07:39:44;;;;;;;9.48;6.85;;;15.80;99.90;;;;;;4259425;27;20038;-56
2022/04/24 07:41:45;;;;;;;6.57;5.13;;;15.70;99.90;;;;;;4257405;27;20072;-55
2022/04/24 07:43:48;;;;;;;7.22;5.55;;;15.60;99.90;;;;;;4259505;27;20038;-51
2022/04/24 07:45:50;;;;;;;6.78;5.28;;;15.50;99.90;;;;;;4258032;27;20027;-56
2022/04/24 07:47:53;;;;;;;8.50;5.60;;;15.60;99.90;;;;;;4258816;27;20064;-57
2022/04/24 07:49:54;;;;;;;6.80;5.00;;;15.60;99.90;;;;;;4258204;27;20107;-57
2022/04/24 07:51:55;;;;;;;7.47;5.10;;;15.60;99.90;;;;;;4258971;27;20087;-51
2022/04/24 07:53:56;;;;;;;7.32;4.88;;;15.50;99.90;;;;;;4257422;27;20038;-61
2022/04/24 07:55:57;;;;;;;7.00;5.43;;;15.40;99.90;;;;;;4258745;27;20702;-50
2022/04/24 07:57:59;;;;;;;7.55;5.90;;;15.40;99.90;;;;;;4258038;27;20043;-54
2022/04/24 08:00:01;;;;;;;6.25;4.90;;;15.40;99.90;;;;;;4257811;27;20100;-60
2022/04/24 08:02:02;;;;;;;6.28;5.00;;;15.60;99.90;;;;;;4257727;27;20486;-56
2022/04/24 08:04:03;;;;;;;8.05;5.45;;;15.70;99.90;;;;;;4256531;27;20047;-53
2022/04/24 08:06:04;;;;;;;6.93;5.00;;;15.80;99.90;;;;;;4240141;27;20072;-53
2022/04/24 08:08:08;;;;;;;6.95;5.20;;;15.60;99.90;;;;;;4257892;27;20528;-60
2022/04/24 08:10:09;;;;;;;7.85;5.28;;;15.60;99.90;;;;;;4259533;27;20079;-62
2022/04/24 08:12:10;;;;;;;6.13;4.88;;;15.70;99.90;;;;;;4257266;27;20039;-52
2022/04/24 08:14:11;;;;;;;6.97;5.00;;;15.60;99.90;;;;;;4258762;27;20099;-60
2022/04/24 08:16:12;;;;;;;7.00;5.60;;;15.60;99.90;;;;;;4257487;27;20080;-55
2022/04/24 08:18:13;;;;;;;10.35;5.53;;;15.60;99.90;;;;;;4258455;27;20471;-64
2022/04/24 08:20:16;;;;;;;6.57;4.97;;;15.90;99.90;;;;;;4257669;27;20030;-53
2022/04/24 08:22:17;;;;;;;6.43;5.10;;;15.90;99.90;;;;;;4258581;27;20087;-57
2022/04/24 08:24:19;;;;;;;7.35;5.38;;;15.90;99.90;;;;;;4257639;27;20067;-62
2022/04/24 08:26:20;;;;;;;8.63;6.18;;;15.80;99.90;;;;;;4258530;27;20022;-58
2022/04/24 08:28:21;;;;;;;9.10;5.85;;;15.70;99.90;;;;;;4258048;27;20063;-60
2022/04/24 08:30:23;;;;;;;8.57;5.78;;;15.40;99.90;;;;;;4258142;27;20026;-59
2022/04/24 08:32:25;;;;;;;9.70;5.97;;;15.30;99.90;;;;;;4257751;27;20535;-59
2022/04/24 08:34:26;;;;;;;8.00;5.75;;;15.20;99.90;;;;;;4257265;27;20125;-54
2022/04/24 08:36:27;;;;;;;8.15;6.50;;;15.20;99.90;;;;;;4257712;27;20548;-58
2022/04/24 08:38:29;;;;;;;9.70;5.63;;;15.20;99.90;;;;;;4257265;27;20027;-53
2022/04/24 08:40:30;;;;;;;10.93;6.72;;;15.10;99.90;;;;;;4258170;27;20035;-55
2022/04/24 08:42:32;;;;;;;8.93;5.85;;;15.10;99.90;;;;;;4256959;27;20027;-54
2022/04/24 08:44:34;;;;;;;8.60;6.55;;;15.20;99.90;;;;;;4259189;27;20035;-53
2022/04/24 08:46:35;;;;;;;10.02;6.30;;;15.30;99.90;;;;;;4257313;27;20075;-57
2022/04/24 08:48:37;;;;;;;7.63;5.85;;;15.20;99.90;;;;;;4258635;27;20535;-59
2022/04/24 08:50:39;;;;;;;7.40;6.05;;;15.10;99.90;;;;;;4256331;27;20151;-52
2022/04/24 08:52:44;;;;;;;11.30;6.10;;;15.20;99.90;;;;;;4257854;27;20558;-51
2022/04/24 08:54:45;;;;;;;6.47;5.40;;;15.40;99.90;;;;;;4256919;27;20106;-60
2022/04/24 08:56:48;;;;;;;6.93;5.70;;;15.50;99.90;;;;;;4256926;27;20042;-65
2022/04/24 08:58:49;;;;;;;7.70;5.97;;;15.60;99.90;;;;;;4256804;27;20079;-56
2022/04/24 09:00:50;;;;;;;8.13;5.28;;;15.50;99.90;;;;;;4257208;27;20038;-53
2022/04/24 09:02:51;;;;;;;8.75;5.30;;;15.50;99.90;;;;;;4257147;27;20019;-53
2022/04/24 09:04:53;;;;;;;7.55;5.32;;;15.50;99.90;;;;;;4257204;27;20777;-60
2022/04/24 09:06:58;;;;;;;7.80;5.80;;;15.50;99.90;;;;;;4257952;27;20056;-60
2022/04/24 09:09:06;;;;;;;8.20;5.70;;;15.60;99.90;;;;;;4256991;27;20076;-57
2022/04/24 09:11:07;;;;;;;6.10;5.15;;;15.70;99.90;;;;;;4258296;27;20538;-55
2022/04/24 09:13:08;;;;;;;7.65;5.43;;;15.80;99.90;;;;;;4257258;27;20035;-61
2022/04/24 09:15:16;;;;;;;7.68;5.47;;;15.90;99.90;;;;;;4258013;27;20047;-65
2022/04/24 09:17:22;;;;;;;8.18;5.50;;;15.90;99.90;;;;;;4256698;27;20099;-66
2022/04/24 09:19:25;;;;;;;8.27;5.35;;;16.00;99.90;;;;;;4258603;27;20038;-58
2022/04/24 09:21:27;;;;;;;6.65;4.60;;;16.10;99.90;;;;;;4256219;27;20087;-52
2022/04/24 09:23:35;;;;;;;7.10;5.43;;;16.10;99.90;;;;;;4257842;27;20437;-54
2022/04/24 09:25:40;;;;;;;7.75;5.53;;;16.10;99.90;;;;;;4256759;27;20083;-56
2022/04/24 09:27:42;;;;;;;8.75;5.70;;;16.10;99.90;;;;;;4258085;27;20030;-55
2022/04/24 09:29:55;;;;;;;6.65;5.32;;;16.40;99.90;;;;;;4256145;27;20072;-50
2022/04/24 09:31:56;;;;;;;6.80;5.25;;;16.50;99.90;;;;;;4257644;27;20444;-58
2022/04/24 09:33:59;;;;;;;7.00;5.30;;;16.60;99.90;;;;;;4256617;27;20087;-61
2022/04/24 09:36:00;;;;;;;8.70;5.50;;;16.60;99.90;;;;;;4257461;27;20491;-52
2022/04/24 09:38:14;;;;;;;6.78;4.88;;;16.70;99.90;;;;;;4257038;27;20023;-64
2022/04/24 09:40:16;;;;;;;6.07;4.95;;;16.80;99.90;;;;;;4258266;27;20038;-60
2022/04/24 09:42:18;;;;;;;7.38;4.40;;;16.80;99.90;;;;;;4256134;27;20042;-62
2022/04/24 09:44:20;;;;;;;7.97;5.63;;;16.90;99.90;;;;;;4258157;27;20039;-59
2022/04/24 09:46:29;;;;;;;6.38;5.20;;;17.00;99.90;;;;;;4256605;27;20052;-59
2022/04/24 09:48:30;;;;;;;6.95;5.03;;;17.20;99.90;;;;;;4257249;27;20027;-63
2022/04/24 09:50:34;;;;;;;8.38;5.90;;;17.20;99.90;;;;;;4256204;27;20440;-61
2022/04/24 09:52:36;;;;;;;6.88;5.20;;;17.10;99.90;;;;;;4256954;27;20089;-65
2022/04/24 09:54:42;;;;;;;6.55;4.72;;;17.10;99.90;;;;;;4259055;27;20099;-58
2022/04/24 09:56:44;;;;;;;7.10;5.28;;;17.00;99.90;;;;;;4259888;27;20503;-62
2022/04/24 09:58:46;;;;;;;7.95;5.25;;;16.90;99.90;;;;;;4260488;27;20151;-54
2022/04/24 10:00:50;;;;;;;7.47;4.57;;;17.00;99.90;;;;;;4259079;27;20035;-63
2022/04/24 10:02:52;;;;;;;5.63;4.20;;;17.20;99.90;;;;;;4260919;27;20023;-61
2022/04/24 10:04:54;;;;;;;6.68;5.72;;;17.30;99.90;;;;;;4259101;27;20092;-51
2022/04/24 10:06:57;;;;;;;6.35;5.07;;;17.30;99.90;;;;;;4261182;27;20466;-63
2022/04/24 10:09:00;;;;;;;6.22;5.20;;;17.20;99.90;;;;;;4259552;27;20046;-62
2022/04/24 10:11:05;;;;;;;7.55;5.90;;;17.20;99.90;;;;;;4260949;27;20031;-52
2022/04/24 10:13:09;;;;;;;6.10;5.18;;;17.20;99.90;;;;;;4259388;27;20075;-53
2022/04/24 10:15:16;;;;;;;5.78;4.55;;;17.20;99.90;;;;;;4260654;27;20087;-50
2022/04/24 10:17:43;;;;;;;5.82;4.82;;;17.20;99.90;;;;;;4259481;27;20158;-53
2022/04/24 10:20:22;;;;;;;6.93;4.90;;;17.20;99.90;;;;;;4261500;27;20079;-57
2022/04/24 10:22:41;;;;;;;5.90;4.15;;;17.20;99.90;;;;;;4258886;27;20894;-53
2022/04/24 10:24:43;;;;;;;4.47;4.07;;;17.20;99.90;;;;;;4259981;27;20042;-61
2022/04/24 10:26:55;;;;;;;5.82;4.65;;;17.40;99.90;;;;;;4259372;27;20367;-58
2022/04/24 10:29:07;;;;;;;4.93;3.67;;;17.50;99.90;;;;;;4260665;27;20526;-59